Time;durP1;ratioP1;P1;durP2;ratioP2;P2;SDS_P1;SDS_P2;PMS_P1;PMS_P2;Temp;Humidity;BMP_temperature;BMP_pressure;BME280_temperature;BME280_humidity;BME280_pressure;Samples;Min_cycle;Max_cycle;Signal;HPM_P1;HPM_P2
2024/02/14 20:53:38;;;;;;;3.27;1.97;;;9.00;99.90;;;;;;2081864;27;1234027;-72
2024/02/14 20:54:39;;;;;;;6.72;3.45;;;9.70;99.90;;;;;;2106868;28;20225;-70
2024/02/14 20:55:39;;;;;;;6.03;4.17;;;9.60;99.90;;;;;;2105057;28;20306;-71
2024/02/14 20:56:40;;;;;;;7.47;5.23;;;9.50;99.90;;;;;;2107201;28;20246;-72
2024/02/14 20:57:41;;;;;;;9.43;6.87;;;9.60;99.90;;;;;;2109985;28;20230;-70
2024/02/14 20:58:42;;;;;;;7.82;5.35;;;9.50;99.90;;;;;;2108702;28;20403;-71
2024/02/14 20:59:42;;;;;;;5.13;3.97;;;9.50;99.90;;;;;;2112744;28;20226;-72
2024/02/14 21:00:43;;;;;;;7.10;4.50;;;9.40;99.90;;;;;;2104694;28;20223;-72
2024/02/14 21:01:44;;;;;;;6.78;4.05;;;9.30;99.90;;;;;;2108967;28;20229;-71
2024/02/14 21:02:45;;;;;;;5.13;3.70;;;9.30;99.90;;;;;;2109208;28;20292;-72
2024/02/14 21:03:45;;;;;;;5.50;4.00;;;9.30;99.90;;;;;;2108546;27;20283;-71
2024/02/14 21:04:46;;;;;;;6.17;3.80;;;9.40;99.90;;;;;;2105580;27;20257;-71
2024/02/14 21:05:47;;;;;;;3.83;3.00;;;9.30;99.90;;;;;;2109401;27;20264;-72
2024/02/14 21:06:48;;;;;;;5.53;2.83;;;9.30;99.90;;;;;;2105900;27;20343;-70
2024/02/14 21:07:48;;;;;;;3.57;2.53;;;9.30;99.90;;;;;;2106339;28;20334;-71
2024/02/14 21:08:50;;;;;;;2.40;2.00;;;9.30;99.90;;;;;;2102807;28;20218;-71
2024/02/14 21:09:51;;;;;;;2.72;1.85;;;9.30;99.90;;;;;;2105674;28;20213;-71
2024/02/14 21:10:52;;;;;;;2.97;1.90;;;9.30;99.90;;;;;;2106418;28;20336;-71
2024/02/14 21:11:52;;;;;;;4.00;1.87;;;9.30;99.90;;;;;;2109631;28;20718;-70
2024/02/14 21:12:53;;;;;;;2.50;1.70;;;9.30;99.90;;;;;;2106863;28;20219;-71
2024/02/14 21:13:53;;;;;;;4.90;2.60;;;9.30;99.90;;;;;;2117404;28;20409;-72
2024/02/14 21:14:54;;;;;;;6.27;2.97;;;9.30;99.90;;;;;;2107911;28;20276;-71
2024/02/14 21:15:55;;;;;;;6.23;2.70;;;9.40;99.90;;;;;;2106946;28;20718;-71
2024/02/14 21:16:55;;;;;;;2.77;1.90;;;9.40;99.90;;;;;;2104812;28;20229;-71
2024/02/14 21:17:56;;;;;;;3.20;1.70;;;9.30;99.90;;;;;;2107971;28;20687;-71
2024/02/14 21:18:56;;;;;;;5.00;2.50;;;9.20;99.90;;;;;;2109969;27;20230;-71
2024/02/14 21:19:57;;;;;;;5.43;3.70;;;9.20;99.90;;;;;;2109526;27;20258;-71
2024/02/14 21:20:57;;;;;;;5.13;3.20;;;9.20;99.90;;;;;;2105959;27;20316;-72
2024/02/14 21:21:58;;;;;;;7.20;3.20;;;9.20;99.90;;;;;;2109250;28;20230;-70
2024/02/14 21:22:59;;;;;;;6.33;2.80;;;9.10;99.90;;;;;;2104314;28;20261;-71
2024/02/14 21:55:37;;;;;;;2.70;1.20;;;9.30;99.90;;;;;;2004847;27;20846;-71
2024/02/14 21:56:38;;;;;;;2.50;1.30;;;9.10;99.90;;;;;;1977275;28;21297;-71
2024/02/14 21:57:39;;;;;;;2.72;1.40;;;9.00;99.90;;;;;;1969232;28;20230;-71
2024/02/14 21:58:40;;;;;;;1.85;1.10;;;8.80;99.90;;;;;;1968412;28;20226;-73
2024/02/14 21:59:40;;;;;;;3.80;0.93;;;8.60;99.90;;;;;;1966815;28;21644;-71
2024/02/14 22:00:41;;;;;;;3.53;1.03;;;8.50;99.90;;;;;;1968032;28;20236;-72
2024/02/14 22:01:42;;;;;;;5.23;2.80;;;8.50;99.90;;;;;;1966313;28;21467;-70
2024/02/14 22:02:43;;;;;;;3.57;1.70;;;8.50;99.90;;;;;;1969163;28;20688;-70
2024/02/14 22:03:44;;;;;;;2.72;1.95;;;8.30;99.90;;;;;;1967627;28;21760;-71
2024/02/14 22:04:48;;;;;;;2.20;1.10;;;8.30;99.90;;;;;;1961897;28;20241;-71
2024/02/14 22:05:49;;;;;;;1.50;1.40;;;8.20;99.90;;;;;;1959984;28;20230;-70
2024/02/14 22:06:50;;;;;;;1.60;1.33;;;8.20;99.90;;;;;;1951321;28;20281;-72
2024/02/14 22:07:53;;;;;;;2.78;1.35;;;8.20;99.90;;;;;;1996743;28;20320;-77
2024/02/14 22:08:55;;;;;;;2.92;1.20;;;8.20;99.90;;;;;;2048873;28;20237;-73
2024/02/14 22:09:55;;;;;;;3.97;1.25;;;8.20;99.90;;;;;;2055524;28;20672;-72
2024/02/14 22:10:57;;;;;;;2.70;1.10;;;8.20;99.90;;;;;;2059129;28;20290;-72
2024/02/14 22:11:58;;;;;;;1.83;1.20;;;8.00;99.90;;;;;;2060311;28;20230;-71
2024/02/14 22:12:58;;;;;;;2.13;1.10;;;8.00;99.90;;;;;;2060659;28;20229;-72
2024/02/14 22:14:00;;;;;;;1.43;1.20;;;8.00;99.90;;;;;;2056987;28;20643;-69
2024/02/14 22:15:01;;;;;;;1.08;0.90;;;8.00;99.90;;;;;;2058864;28;20264;-72
2024/02/14 22:16:03;;;;;;;1.53;1.00;;;8.00;99.90;;;;;;2062213;28;20199;-72
2024/02/14 22:17:05;;;;;;;4.93;1.35;;;7.90;99.90;;;;;;2060929;28;20404;-71
2024/02/14 22:18:06;;;;;;;1.30;1.00;;;7.90;99.90;;;;;;2053572;28;20197;-71
2024/02/14 22:19:07;;;;;;;1.53;1.03;;;7.80;99.90;;;;;;2048283;28;20206;-73
2024/02/14 22:20:09;;;;;;;1.83;1.27;;;7.70;99.90;;;;;;2052597;28;20176;-73
2024/02/14 22:21:10;;;;;;;2.85;1.10;;;7.60;99.90;;;;;;2060210;28;21660;-72
2024/02/14 22:22:18;;;;;;;1.35;1.00;;;7.60;99.90;;;;;;2059836;28;20194;-71
2024/02/14 22:23:18;;;;;;;2.60;1.45;;;7.60;99.90;;;;;;2055714;28;20193;-73
2024/02/14 22:24:20;;;;;;;2.83;1.33;;;7.50;99.90;;;;;;2042321;28;20952;-73
2024/02/14 22:25:21;;;;;;;1.88;1.20;;;7.40;99.90;;;;;;1993226;28;20252;-73
2024/02/14 22:26:21;;;;;;;2.20;1.30;;;7.40;99.90;;;;;;2053976;28;20245;-74
2024/02/14 22:27:22;;;;;;;2.20;1.20;;;7.40;99.90;;;;;;2054333;28;20335;-72
2024/02/14 22:28:23;;;;;;;2.90;1.30;;;7.40;99.90;;;;;;2053659;28;20650;-73
2024/02/14 22:29:24;;;;;;;1.83;1.20;;;7.40;99.90;;;;;;2053606;28;20227;-75
2024/02/14 22:30:25;;;;;;;2.03;1.00;;;7.40;99.90;;;;;;2071020;28;20235;-73
2024/02/14 22:31:28;;;;;;;3.67;1.33;;;7.40;99.90;;;;;;2067874;28;20714;-73
2024/02/14 22:32:29;;;;;;;4.03;1.20;;;7.40;99.90;;;;;;2061500;28;20232;-72
2024/02/14 22:33:30;;;;;;;2.17;1.37;;;7.50;99.90;;;;;;2068047;28;20232;-73
2024/02/14 22:34:30;;;;;;;3.17;1.20;;;7.50;99.90;;;;;;2068692;28;20225;-73
2024/02/14 22:35:31;;;;;;;1.20;1.10;;;7.40;99.90;;;;;;2055299;28;20289;-71
2024/02/14 22:36:32;;;;;;;0.87;0.80;;;7.40;99.90;;;;;;2053114;28;20322;-72
2024/02/14 22:37:32;;;;;;;3.37;1.30;;;7.30;99.90;;;;;;2068745;28;20263;-73
2024/02/14 22:38:33;;;;;;;1.53;1.10;;;7.20;99.90;;;;;;2070247;28;20230;-73
2024/02/14 22:39:34;;;;;;;3.40;1.23;;;7.30;99.90;;;;;;2057572;28;20225;-73
2024/02/14 22:40:36;;;;;;;1.23;1.00;;;7.20;99.90;;;;;;2057366;28;20234;-72
2024/02/14 22:41:38;;;;;;;2.95;1.40;;;7.20;99.90;;;;;;2057039;28;20295;-72
2024/02/14 22:42:40;;;;;;;1.98;1.15;;;7.20;99.90;;;;;;2053807;28;20232;-72
2024/02/14 22:43:41;;;;;;;2.33;0.93;;;7.20;99.90;;;;;;2055280;28;21061;-73
2024/02/14 22:44:43;;;;;;;0.90;0.90;;;7.20;99.90;;;;;;2052981;28;20329;-70
2024/02/14 22:45:44;;;;;;;2.20;1.33;;;7.20;99.90;;;;;;2055950;28;20234;-72
2024/02/14 22:46:44;;;;;;;4.03;1.47;;;7.10;99.90;;;;;;2053092;28;20231;-72
2024/02/14 22:47:45;;;;;;;1.80;1.30;;;7.10;99.90;;;;;;2059001;28;20318;-71
2024/02/14 22:48:47;;;;;;;3.07;1.60;;;7.10;99.90;;;;;;2067550;28;20225;-71
2024/02/14 22:49:47;;;;;;;1.98;1.50;;;7.00;99.90;;;;;;2069632;28;20704;-75
2024/02/14 22:50:48;;;;;;;2.33;1.80;;;7.10;99.90;;;;;;2054925;28;20290;-71
2024/02/14 22:51:48;;;;;;;2.27;1.67;;;7.00;99.90;;;;;;2054734;28;20214;-73
2024/02/14 22:52:49;;;;;;;6.63;2.10;;;7.00;99.90;;;;;;2054245;28;20257;-69
2024/02/14 22:53:50;;;;;;;2.57;1.97;;;7.00;99.90;;;;;;2059947;28;20307;-72
2024/02/14 22:54:50;;;;;;;1.38;0.90;;;7.00;99.90;;;;;;2051540;28;20227;-71
2024/02/14 22:55:51;;;;;;;2.20;1.27;;;7.00;99.90;;;;;;2057737;28;20691;-75
2024/02/14 22:56:51;;;;;;;1.40;1.10;;;6.90;99.90;;;;;;2049202;28;20378;-71
2024/02/14 22:57:52;;;;;;;2.43;1.17;;;6.80;99.90;;;;;;2050000;28;20237;-72
2024/02/14 22:58:53;;;;;;;2.20;1.20;;;6.80;99.90;;;;;;2048765;28;20231;-72
2024/02/14 22:59:54;;;;;;;2.17;1.20;;;6.80;99.90;;;;;;2048692;28;21009;-72
2024/02/14 23:00:55;;;;;;;2.60;1.20;;;6.80;99.90;;;;;;2047815;28;20768;-71
2024/02/14 23:01:56;;;;;;;2.08;1.10;;;6.80;99.90;;;;;;2047103;28;20238;-73
2024/02/14 23:02:56;;;;;;;1.80;1.00;;;6.70;99.90;;;;;;2048060;28;20227;-72
2024/02/14 23:03:57;;;;;;;2.23;1.20;;;6.70;99.90;;;;;;2052524;28;20286;-72
2024/02/14 23:04:58;;;;;;;2.73;1.10;;;6.70;99.90;;;;;;2048836;28;20247;-72
2024/02/14 23:06:01;;;;;;;2.33;1.15;;;6.70;99.90;;;;;;2048821;28;20221;-73
2024/02/14 23:07:02;;;;;;;1.50;1.40;;;6.80;99.90;;;;;;2046590;28;20287;-72
2024/02/14 23:08:03;;;;;;;3.23;1.47;;;6.60;99.90;;;;;;2047637;28;20727;-72
2024/02/14 23:09:09;;;;;;;2.07;1.30;;;6.70;99.90;;;;;;2047273;28;20242;-70
2024/02/14 23:10:09;;;;;;;2.67;1.15;;;6.70;99.90;;;;;;2051786;28;20197;-72
2024/02/14 23:11:10;;;;;;;1.43;1.30;;;6.60;99.90;;;;;;2047909;28;20222;-71
2024/02/14 23:12:11;;;;;;;3.10;1.47;;;6.50;99.90;;;;;;2049119;28;20219;-72
2024/02/14 23:13:12;;;;;;;1.63;1.20;;;6.50;99.90;;;;;;2046506;28;20338;-72
2024/02/14 23:14:17;;;;;;;2.13;1.40;;;6.50;99.90;;;;;;2057200;28;20245;-73
2024/02/14 23:15:18;;;;;;;3.00;1.40;;;6.40;99.90;;;;;;2047199;28;20196;-71
2024/02/14 23:16:18;;;;;;;3.20;1.70;;;6.40;99.90;;;;;;2052995;28;20179;-71
2024/02/14 23:17:19;;;;;;;3.67;1.20;;;6.30;99.90;;;;;;2057240;28;20191;-70
2024/02/14 23:18:20;;;;;;;2.17;1.00;;;6.20;99.90;;;;;;2054857;28;20238;-71
2024/02/14 23:19:21;;;;;;;5.50;1.93;;;6.20;99.90;;;;;;2041191;28;20331;-72
2024/02/14 23:20:21;;;;;;;2.57;1.10;;;6.20;99.90;;;;;;2053012;28;20263;-72
2024/02/14 23:21:23;;;;;;;1.87;1.23;;;6.10;99.90;;;;;;2058757;28;20409;-72
2024/02/14 23:22:24;;;;;;;1.60;1.38;;;6.00;99.90;;;;;;2076741;28;20229;-72
2024/02/14 23:23:25;;;;;;;2.33;1.37;;;6.00;99.90;;;;;;2056865;28;20259;-72
2024/02/14 23:24:27;;;;;;;1.97;1.30;;;6.00;99.90;;;;;;2058115;28;20238;-72
2024/02/14 23:25:30;;;;;;;4.25;1.75;;;5.90;99.90;;;;;;2050288;28;20238;-70
2024/02/14 23:26:31;;;;;;;2.40;1.17;;;5.90;99.90;;;;;;2046525;28;20676;-72
2024/02/14 23:27:32;;;;;;;3.13;1.93;;;5.90;99.90;;;;;;2039472;28;20319;-72
2024/02/14 23:28:32;;;;;;;1.73;1.30;;;6.00;99.90;;;;;;2036031;29;20806;-72
2024/02/14 23:29:33;;;;;;;6.60;1.50;;;5.90;99.90;;;;;;2038936;28;20743;-72
2024/02/14 23:30:34;;;;;;;2.50;1.70;;;5.80;99.90;;;;;;2039822;28;20239;-72
2024/02/14 23:31:35;;;;;;;2.45;1.75;;;5.90;99.90;;;;;;2046089;28;20239;-71
2024/02/14 23:32:38;;;;;;;2.10;1.40;;;5.90;99.90;;;;;;2046333;28;20293;-73
2024/02/14 23:33:39;;;;;;;3.58;1.70;;;5.90;99.90;;;;;;2048236;28;20231;-71
2024/02/14 23:34:41;;;;;;;1.67;1.58;;;6.00;99.90;;;;;;2048035;28;20235;-71
2024/02/14 23:35:42;;;;;;;2.77;1.63;;;5.80;99.90;;;;;;2054130;28;20268;-73
2024/02/14 23:36:44;;;;;;;4.63;1.73;;;5.90;99.90;;;;;;2031012;29;20670;-70
2024/02/14 23:37:46;;;;;;;3.00;2.63;;;5.90;99.90;;;;;;2047009;28;20283;-71
2024/02/14 23:38:46;;;;;;;4.57;2.40;;;5.90;99.90;;;;;;2057900;28;20225;-71
2024/02/14 23:39:47;;;;;;;4.07;2.07;;;5.80;99.90;;;;;;2053881;28;20255;-71
2024/02/14 23:40:48;;;;;;;3.80;2.20;;;5.70;99.90;;;;;;2041441;29;20400;-71
2024/02/14 23:41:48;;;;;;;4.27;2.23;;;5.60;99.90;;;;;;2048349;28;20304;-70
2024/02/14 23:42:49;;;;;;;3.10;2.30;;;5.70;99.90;;;;;;2049822;28;20317;-72
2024/02/14 23:43:52;;;;;;;4.50;2.50;;;5.60;99.90;;;;;;2051848;28;20234;-72
2024/02/14 23:44:54;;;;;;;2.88;1.63;;;5.70;99.90;;;;;;2048566;28;20240;-71
2024/02/14 23:45:54;;;;;;;3.50;1.60;;;5.60;99.90;;;;;;2056650;28;20226;-72
2024/02/14 23:46:55;;;;;;;3.90;1.90;;;5.60;99.90;;;;;;2052289;28;20614;-75
2024/02/14 23:47:57;;;;;;;3.47;1.60;;;5.50;99.90;;;;;;2054130;28;20223;-74
2024/02/14 23:48:58;;;;;;;2.40;1.77;;;5.50;99.90;;;;;;2047265;28;20290;-74
2024/02/14 23:49:59;;;;;;;4.73;1.90;;;5.50;99.90;;;;;;2039290;29;20227;-73
2024/02/14 23:51:00;;;;;;;3.70;2.20;;;5.60;99.90;;;;;;2048027;28;20830;-74
2024/02/14 23:52:01;;;;;;;6.27;1.83;;;5.50;99.90;;;;;;2046825;28;20239;-75
2024/02/14 23:53:01;;;;;;;2.47;1.40;;;5.50;99.90;;;;;;2045567;28;20227;-73
2024/02/14 23:54:03;;;;;;;2.87;1.50;;;5.40;99.90;;;;;;2038326;28;20288;-73
2024/02/14 23:55:05;;;;;;;2.30;1.75;;;5.50;99.90;;;;;;2043380;28;20312;-73
2024/02/14 23:56:07;;;;;;;2.95;1.80;;;5.50;99.90;;;;;;2043185;28;20191;-73
2024/02/14 23:57:08;;;;;;;3.58;2.00;;;5.60;99.90;;;;;;2053090;28;20182;-73
2024/02/14 23:58:10;;;;;;;2.63;1.80;;;5.50;99.90;;;;;;2055105;28;20220;-73
2024/02/14 23:59:11;;;;;;;2.70;1.80;;;5.50;99.90;;;;;;2048312;28;20272;-73
